sensor_id;sensor_type;location;lat;lon;timestamp;pressure;altitude;pressure_sealevel;temperature;humidity
64876;BME280;51369;49.862;9.908;2022-08-14T00:01:06;98052.75;;;21.99;56.78
64876;BME280;51369;49.862;9.908;2022-08-14T00:03:31;98053.19;;;21.95;57.19
64876;BME280;51369;49.862;9.908;2022-08-14T00:05:59;98049.72;;;21.93;57.29
64876;BME280;51369;49.862;9.908;2022-08-14T00:08:25;98049.72;;;21.93;57.22
64876;BME280;51369;49.862;9.908;2022-08-14T00:10:51;98045.38;;;21.90;57.25
64876;BME280;51369;49.862;9.908;2022-08-14T00:13:18;98038.44;;;21.86;57.75
64876;BME280;51369;49.862;9.908;2022-08-14T00:15:47;98034.25;;;21.82;58.29
64876;BME280;51369;49.862;9.908;2022-08-14T00:18:17;98028.31;;;21.77;58.19
64876;BME280;51369;49.862;9.908;2022-08-14T00:20:43;98030.34;;;21.75;58.31
64876;BME280;51369;49.862;9.908;2022-08-14T00:23:11;98024.53;;;21.78;58.75
64876;BME280;51369;49.862;9.908;2022-08-14T00:25:37;98024.53;;;21.78;59.31
64876;BME280;51369;49.862;9.908;2022-08-14T00:28:04;98022.81;;;21.77;59.20
64876;BME280;51369;49.862;9.908;2022-08-14T00:30:31;98010.38;;;21.73;58.38
64876;BME280;51369;49.862;9.908;2022-08-14T00:32:57;98006.19;;;21.69;59.11
64876;BME280;51369;49.862;9.908;2022-08-14T00:35:22;98010.66;;;21.70;58.19
64876;BME280;51369;49.862;9.908;2022-08-14T00:37:48;98007.91;;;21.70;58.70
64876;BME280;51369;49.862;9.908;2022-08-14T00:40:15;98008.34;;;21.75;58.13
64876;BME280;51369;49.862;9.908;2022-08-14T00:42:41;98003.00;;;21.73;57.94
64876;BME280;51369;49.862;9.908;2022-08-14T00:45:09;97998.81;;;21.69;58.37
64876;BME280;51369;49.862;9.908;2022-08-14T00:47:35;97997.78;;;21.61;58.95
64876;BME280;51369;49.862;9.908;2022-08-14T00:50:03;97993.16;;;21.52;58.71
64876;BME280;51369;49.862;9.908;2022-08-14T00:52:29;98003.69;;;21.47;60.19
64876;BME280;51369;49.862;9.908;2022-08-14T00:54:56;97988.34;;;21.34;59.97
64876;BME280;51369;49.862;9.908;2022-08-14T00:57:30;97994.84;;;21.24;60.54
64876;BME280;51369;49.862;9.908;2022-08-14T00:59:56;97998.84;;;21.20;60.65
64876;BME280;51369;49.862;9.908;2022-08-14T01:02:23;97995.50;;;21.16;60.65
64876;BME280;51369;49.862;9.908;2022-08-14T01:04:55;97992.47;;;21.19;61.47
64876;BME280;51369;49.862;9.908;2022-08-14T01:07:26;97991.63;;;21.19;62.29
64876;BME280;51369;49.862;9.908;2022-08-14T01:09:58;97988.00;;;21.18;62.39
64876;BME280;51369;49.862;9.908;2022-08-14T01:12:27;97979.75;;;21.18;62.35
64876;BME280;51369;49.862;9.908;2022-08-14T01:14:53;97985.13;;;21.20;62.46
64876;BME280;51369;49.862;9.908;2022-08-14T01:17:23;97979.38;;;21.23;62.09
64876;BME280;51369;49.862;9.908;2022-08-14T01:20:09;97979.22;;;21.24;62.40
64876;BME280;51369;49.862;9.908;2022-08-14T01:22:53;97974.47;;;21.26;62.58
64876;BME280;51369;49.862;9.908;2022-08-14T01:25:19;97975.91;;;21.30;61.72
64876;BME280;51369;49.862;9.908;2022-08-14T01:27:44;97968.28;;;21.34;62.67
64876;BME280;51369;49.862;9.908;2022-08-14T01:30:11;97969.84;;;21.36;63.07
64876;BME280;51369;49.862;9.908;2022-08-14T01:32:36;97963.34;;;21.37;62.41
64876;BME280;51369;49.862;9.908;2022-08-14T01:35:02;97962.06;;;21.41;62.23
64876;BME280;51369;49.862;9.908;2022-08-14T01:37:31;97967.41;;;21.43;61.25
64876;BME280;51369;49.862;9.908;2022-08-14T01:39:56;97963.78;;;21.42;61.59
64876;BME280;51369;49.862;9.908;2022-08-14T01:42:22;97966.97;;;21.38;62.23
64876;BME280;51369;49.862;9.908;2022-08-14T01:44:47;97954.53;;;21.34;61.74
64876;BME280;51369;49.862;9.908;2022-08-14T01:47:17;97950.63;;;21.27;61.79
64876;BME280;51369;49.862;9.908;2022-08-14T01:49:43;97947.69;;;21.19;61.63
64876;BME280;51369;49.862;9.908;2022-08-14T01:52:09;97951.44;;;21.08;61.75
64876;BME280;51369;49.862;9.908;2022-08-14T01:54:34;97948.50;;;20.90;61.59
64876;BME280;51369;49.862;9.908;2022-08-14T01:57:01;97945.16;;;20.77;62.41
64876;BME280;51369;49.862;9.908;2022-08-14T01:59:29;97947.28;;;20.64;62.46
64876;BME280;51369;49.862;9.908;2022-08-14T02:02:03;97939.03;;;20.54;64.05
64876;BME280;51369;49.862;9.908;2022-08-14T02:04:34;97939.84;;;20.45;64.35
64876;BME280;51369;49.862;9.908;2022-08-14T02:07:01;97931.69;;;20.34;64.06
64876;BME280;51369;49.862;9.908;2022-08-14T02:09:27;97929.63;;;20.26;64.02
64876;BME280;51369;49.862;9.908;2022-08-14T02:11:55;97922.09;;;20.19;64.14
64876;BME280;51369;49.862;9.908;2022-08-14T02:14:20;97919.75;;;20.14;64.98
64876;BME280;51369;49.862;9.908;2022-08-14T02:16:49;97916.53;;;20.09;65.94
64876;BME280;51369;49.862;9.908;2022-08-14T02:19:20;97914.22;;;20.04;65.94
64876;BME280;51369;49.862;9.908;2022-08-14T02:21:50;97909.88;;;20.02;67.31
64876;BME280;51369;49.862;9.908;2022-08-14T02:24:20;97901.66;;;20.02;66.24
64876;BME280;51369;49.862;9.908;2022-08-14T02:26:48;97912.00;;;19.98;66.10
64876;BME280;51369;49.862;9.908;2022-08-14T02:29:16;97916.91;;;19.95;66.55
64876;BME280;51369;49.862;9.908;2022-08-14T02:31:45;97916.44;;;19.90;65.71
64876;BME280;51369;49.862;9.908;2022-08-14T02:34:20;97913.50;;;19.81;66.70
64876;BME280;51369;49.862;9.908;2022-08-14T02:36:48;97913.63;;;19.80;67.79
64876;BME280;51369;49.862;9.908;2022-08-14T02:39:14;97907.28;;;19.79;67.87
64876;BME280;51369;49.862;9.908;2022-08-14T02:41:40;97907.16;;;19.81;67.45
64876;BME280;51369;49.862;9.908;2022-08-14T02:44:09;97911.34;;;19.85;66.69
64876;BME280;51369;49.862;9.908;2022-08-14T02:46:36;97904.75;;;19.88;66.67
64876;BME280;51369;49.862;9.908;2022-08-14T02:49:02;97902.28;;;19.85;66.46
64876;BME280;51369;49.862;9.908;2022-08-14T02:51:28;97897.06;;;19.81;66.49
64876;BME280;51369;49.862;9.908;2022-08-14T02:53:54;97887.25;;;19.79;66.17
64876;BME280;51369;49.862;9.908;2022-08-14T02:56:20;97882.03;;;19.76;65.92
64876;BME280;51369;49.862;9.908;2022-08-14T02:58:48;97879.09;;;19.68;66.69
64876;BME280;51369;49.862;9.908;2022-08-14T03:01:15;97874.16;;;19.62;66.56
64876;BME280;51369;49.862;9.908;2022-08-14T03:03:42;97874.41;;;19.59;66.46
64876;BME280;51369;49.862;9.908;2022-08-14T03:06:08;97864.59;;;19.56;66.32
64876;BME280;51369;49.862;9.908;2022-08-14T03:08:36;97876.56;;;19.55;66.46
64876;BME280;51369;49.862;9.908;2022-08-14T03:11:04;97865.09;;;19.50;67.29
64876;BME280;51369;49.862;9.908;2022-08-14T03:13:33;97863.78;;;19.44;67.10
64876;BME280;51369;49.862;9.908;2022-08-14T03:16:01;97868.78;;;19.39;66.80
64876;BME280;51369;49.862;9.908;2022-08-14T03:18:28;97867.31;;;19.35;68.11
64876;BME280;51369;49.862;9.908;2022-08-14T03:20:53;97862.34;;;19.29;68.00
64876;BME280;51369;49.862;9.908;2022-08-14T03:23:19;97858.28;;;19.24;67.88
64876;BME280;51369;49.862;9.908;2022-08-14T03:25:45;97846.00;;;19.18;68.83
64876;BME280;51369;49.862;9.908;2022-08-14T03:28:12;97837.31;;;19.13;68.32
64876;BME280;51369;49.862;9.908;2022-08-14T03:30:37;97833.84;;;19.11;69.25
64876;BME280;51369;49.862;9.908;2022-08-14T03:33:04;97830.22;;;19.10;69.39
64876;BME280;51369;49.862;9.908;2022-08-14T03:35:30;97830.50;;;19.07;69.16
64876;BME280;51369;49.862;9.908;2022-08-14T03:38:11;97828.19;;;19.03;69.18
64876;BME280;51369;49.862;9.908;2022-08-14T03:40:38;97826.44;;;19.02;68.99
64876;BME280;51369;49.862;9.908;2022-08-14T03:43:08;97826.72;;;18.99;68.58
64876;BME280;51369;49.862;9.908;2022-08-14T03:45:36;97820.63;;;18.95;69.41
64876;BME280;51369;49.862;9.908;2022-08-14T03:48:12;97815.69;;;18.89;69.26
64876;BME280;51369;49.862;9.908;2022-08-14T03:50:50;97807.59;;;18.88;69.02
64876;BME280;51369;49.862;9.908;2022-08-14T03:53:18;97805.00;;;18.86;69.87
64876;BME280;51369;49.862;9.908;2022-08-14T03:55:45;97802.41;;;18.84;70.00
64876;BME280;51369;49.862;9.908;2022-08-14T03:58:11;97807.00;;;18.84;69.46
64876;BME280;51369;49.862;9.908;2022-08-14T04:00:38;97810.59;;;18.84;69.45
64876;BME280;51369;49.862;9.908;2022-08-14T04:03:06;97821.81;;;18.81;69.21
64876;BME280;51369;49.862;9.908;2022-08-14T04:05:34;97832.00;;;18.79;69.54
64876;BME280;51369;49.862;9.908;2022-08-14T04:08:03;97826.81;;;18.76;69.75
64876;BME280;51369;49.862;9.908;2022-08-14T04:10:29;97841.59;;;18.74;71.05
64876;BME280;51369;49.862;9.908;2022-08-14T04:12:54;97835.38;;;18.72;71.49
64876;BME280;51369;49.862;9.908;2022-08-14T04:15:25;97831.06;;;18.69;72.26
64876;BME280;51369;49.862;9.908;2022-08-14T04:17:51;97830.06;;;18.70;73.51
64876;BME280;51369;49.862;9.908;2022-08-14T04:20:19;97828.06;;;18.72;73.89
64876;BME280;51369;49.862;9.908;2022-08-14T04:22:46;97822.34;;;18.75;73.88
64876;BME280;51369;49.862;9.908;2022-08-14T04:25:15;97820.19;;;18.79;72.80
64876;BME280;51369;49.862;9.908;2022-08-14T04:27:41;97827.41;;;18.80;72.20
64876;BME280;51369;49.862;9.908;2022-08-14T04:30:06;97824.53;;;18.81;72.31
64876;BME280;51369;49.862;9.908;2022-08-14T04:32:32;97817.34;;;18.80;71.57
64876;BME280;51369;49.862;9.908;2022-08-14T04:35:02;97827.53;;;18.78;71.05
64876;BME280;51369;49.862;9.908;2022-08-14T04:37:27;97828.53;;;18.77;71.21
64876;BME280;51369;49.862;9.908;2022-08-14T04:40:13;97834.53;;;18.71;70.99
64876;BME280;51369;49.862;9.908;2022-08-14T04:42:57;97823.84;;;18.68;71.31
64876;BME280;51369;49.862;9.908;2022-08-14T04:45:41;97822.25;;;18.66;70.55
64876;BME280;51369;49.862;9.908;2022-08-14T04:48:13;97825.09;;;18.64;71.37
64876;BME280;51369;49.862;9.908;2022-08-14T04:50:48;97827.09;;;18.62;71.05
64876;BME280;51369;49.862;9.908;2022-08-14T04:53:17;97831.78;;;18.60;71.24
64876;BME280;51369;49.862;9.908;2022-08-14T04:55:44;97824.59;;;18.59;70.82
64876;BME280;51369;49.862;9.908;2022-08-14T04:58:14;97825.56;;;18.58;71.68
64876;BME280;51369;49.862;9.908;2022-08-14T05:00:43;97829.44;;;18.56;72.73
64876;BME280;51369;49.862;9.908;2022-08-14T05:03:09;97834.03;;;18.55;72.42
64876;BME280;51369;49.862;9.908;2022-08-14T05:05:34;97833.16;;;18.54;72.70
64876;BME280;51369;49.862;9.908;2022-08-14T05:08:09;97834.03;;;18.55;73.55
64876;BME280;51369;49.862;9.908;2022-08-14T05:10:43;97823.97;;;18.56;72.27
64876;BME280;51369;49.862;9.908;2022-08-14T05:13:09;97822.84;;;18.58;72.87
64876;BME280;51369;49.862;9.908;2022-08-14T05:15:36;97824.59;;;18.59;72.44
64876;BME280;51369;49.862;9.908;2022-08-14T05:18:07;97823.50;;;18.62;71.62
64876;BME280;51369;49.862;9.908;2022-08-14T05:20:40;97825.97;;;18.65;72.79
64876;BME280;51369;49.862;9.908;2022-08-14T05:23:08;97822.25;;;18.66;72.21
64876;BME280;51369;49.862;9.908;2022-08-14T05:25:35;97824.72;;;18.69;72.53
64876;BME280;51369;49.862;9.908;2022-08-14T05:28:12;97819.13;;;18.70;72.95
64876;BME280;51369;49.862;9.908;2022-08-14T05:30:47;97817.84;;;18.74;72.51
64876;BME280;51369;49.862;9.908;2022-08-14T05:33:14;97828.41;;;18.79;72.36
64876;BME280;51369;49.862;9.908;2022-08-14T05:35:41;97821.69;;;18.83;72.31
64876;BME280;51369;49.862;9.908;2022-08-14T05:38:13;97816.56;;;18.90;72.12
64876;BME280;51369;49.862;9.908;2022-08-14T05:40:39;97824.09;;;18.97;72.90
64876;BME280;51369;49.862;9.908;2022-08-14T05:43:05;97817.41;;;19.11;72.70
64876;BME280;51369;49.862;9.908;2022-08-14T05:45:31;97818.84;;;19.26;73.45
64876;BME280;51369;49.862;9.908;2022-08-14T05:47:59;97816.50;;;19.42;73.22
64876;BME280;51369;49.862;9.908;2022-08-14T05:50:25;97811.44;;;19.59;73.01
64876;BME280;51369;49.862;9.908;2022-08-14T05:52:50;97813.56;;;19.76;72.76
64876;BME280;51369;49.862;9.908;2022-08-14T05:55:16;97823.75;;;19.95;71.50
64876;BME280;51369;49.862;9.908;2022-08-14T05:57:53;97819.66;;;20.20;72.02
64876;BME280;51369;49.862;9.908;2022-08-14T06:00:22;97814.28;;;20.49;72.20
64876;BME280;51369;49.862;9.908;2022-08-14T06:02:49;97811.16;;;20.72;70.63
64876;BME280;51369;49.862;9.908;2022-08-14T06:05:14;97807.53;;;20.91;69.20
64876;BME280;51369;49.862;9.908;2022-08-14T06:07:40;97811.16;;;21.11;69.35
64876;BME280;51369;49.862;9.908;2022-08-14T06:10:07;97813.91;;;21.30;68.71
64876;BME280;51369;49.862;9.908;2022-08-14T06:12:34;97813.88;;;21.50;68.61
64876;BME280;51369;49.862;9.908;2022-08-14T06:14:59;97821.06;;;21.70;67.62
64876;BME280;51369;49.862;9.908;2022-08-14T06:17:25;97823.47;;;21.92;67.11
64876;BME280;51369;49.862;9.908;2022-08-14T06:19:51;97831.53;;;22.13;66.74
64876;BME280;51369;49.862;9.908;2022-08-14T06:22:17;97819.56;;;22.32;66.25
64876;BME280;51369;49.862;9.908;2022-08-14T06:24:42;97822.06;;;22.53;65.85
64876;BME280;51369;49.862;9.908;2022-08-14T06:27:08;97823.97;;;22.70;65.04
64876;BME280;51369;49.862;9.908;2022-08-14T06:29:35;97825.03;;;22.87;64.52
64876;BME280;51369;49.862;9.908;2022-08-14T06:32:01;97818.69;;;23.04;64.03
64876;BME280;51369;49.862;9.908;2022-08-14T06:34:27;97826.38;;;23.18;63.43
64876;BME280;51369;49.862;9.908;2022-08-14T06:36:52;97821.34;;;23.31;63.06
64876;BME280;51369;49.862;9.908;2022-08-14T06:39:21;97822.13;;;23.42;62.04
64876;BME280;51369;49.862;9.908;2022-08-14T06:41:47;97811.16;;;23.50;61.74
64876;BME280;51369;49.862;9.908;2022-08-14T06:44:14;97815.75;;;23.59;61.78
64876;BME280;51369;49.862;9.908;2022-08-14T06:46:40;97817.53;;;23.68;61.61
64876;BME280;51369;49.862;9.908;2022-08-14T06:49:05;97822.97;;;23.78;61.24
64876;BME280;51369;49.862;9.908;2022-08-14T06:51:31;97827.81;;;23.84;61.15
64876;BME280;51369;49.862;9.908;2022-08-14T06:53:56;97825.28;;;23.90;60.50
64876;BME280;51369;49.862;9.908;2022-08-14T06:56:22;97827.22;;;23.98;60.69
64876;BME280;51369;49.862;9.908;2022-08-14T06:58:48;97820.19;;;24.04;60.28
64876;BME280;51369;49.862;9.908;2022-08-14T07:01:14;97815.91;;;24.09;60.10
64876;BME280;51369;49.862;9.908;2022-08-14T07:03:58;97811.81;;;24.13;59.95
64876;BME280;51369;49.862;9.908;2022-08-14T07:06:43;97818.03;;;24.15;59.99
64876;BME280;51369;49.862;9.908;2022-08-14T07:09:09;97822.34;;;24.18;59.76
64876;BME280;51369;49.862;9.908;2022-08-14T07:11:36;97820.13;;;24.21;59.72
64876;BME280;51369;49.862;9.908;2022-08-14T07:14:01;97819.66;;;24.26;59.67
64876;BME280;51369;49.862;9.908;2022-08-14T07:16:27;97807.94;;;24.32;59.05
64876;BME280;51369;49.862;9.908;2022-08-14T07:18:52;97800.72;;;24.39;59.33
64876;BME280;51369;49.862;9.908;2022-08-14T07:21:18;97803.50;;;24.47;59.43
64876;BME280;51369;49.862;9.908;2022-08-14T07:23:44;97797.00;;;24.56;58.98
64876;BME280;51369;49.862;9.908;2022-08-14T07:26:10;97794.25;;;24.64;58.44
64876;BME280;51369;49.862;9.908;2022-08-14T07:28:39;97794.97;;;24.75;58.58
64876;BME280;51369;49.862;9.908;2022-08-14T07:31:07;97792.25;;;24.83;57.80
64876;BME280;51369;49.862;9.908;2022-08-14T07:33:42;97785.69;;;24.92;58.04
64876;BME280;51369;49.862;9.908;2022-08-14T07:36:11;97788.00;;;25.05;57.68
64876;BME280;51369;49.862;9.908;2022-08-14T07:38:36;97774.72;;;25.16;57.09
64876;BME280;51369;49.862;9.908;2022-08-14T07:41:03;97780.59;;;25.29;57.03
64876;BME280;51369;49.862;9.908;2022-08-14T07:43:29;97760.56;;;25.44;56.77
64876;BME280;51369;49.862;9.908;2022-08-14T07:45:55;97760.91;;;25.57;55.71
64876;BME280;51369;49.862;9.908;2022-08-14T07:48:20;97772.13;;;25.72;55.64
64876;BME280;51369;49.862;9.908;2022-08-14T07:50:47;97755.50;;;25.88;55.20
64876;BME280;51369;49.862;9.908;2022-08-14T07:53:15;97756.28;;;26.05;55.00
64876;BME280;51369;49.862;9.908;2022-08-14T07:55:41;97752.47;;;26.14;54.45
64876;BME280;51369;49.862;9.908;2022-08-14T07:58:07;97750.03;;;26.19;53.70
64876;BME280;51369;49.862;9.908;2022-08-14T08:00:33;97744.13;;;26.22;53.29
64876;BME280;51369;49.862;9.908;2022-08-14T08:02:58;97739.28;;;26.24;53.63
64876;BME280;51369;49.862;9.908;2022-08-14T08:05:25;97741.88;;;26.25;53.60
64876;BME280;51369;49.862;9.908;2022-08-14T08:07:51;97739.59;;;26.29;52.88
64876;BME280;51369;49.862;9.908;2022-08-14T08:10:19;97746.53;;;26.33;52.90
64876;BME280;51369;49.862;9.908;2022-08-14T08:15:40;97728.31;;;26.47;52.74
64876;BME280;51369;49.862;9.908;2022-08-14T08:18:07;97725.84;;;26.52;52.63
64876;BME280;51369;49.862;9.908;2022-08-14T08:20:36;97733.63;;;26.56;52.06
64876;BME280;51369;49.862;9.908;2022-08-14T08:23:04;97739.66;;;26.60;52.43
64876;BME280;51369;49.862;9.908;2022-08-14T08:25:33;97734.94;;;26.69;52.56
64876;BME280;51369;49.862;9.908;2022-08-14T08:28:22;97742.81;;;26.80;51.75
64876;BME280;51369;49.862;9.908;2022-08-14T08:30:53;97749.84;;;26.90;51.38
64876;BME280;51369;49.862;9.908;2022-08-14T08:33:23;97750.50;;;27.01;51.74
64876;BME280;51369;49.862;9.908;2022-08-14T08:35:50;97745.09;;;27.07;50.67
64876;BME280;51369;49.862;9.908;2022-08-14T08:38:17;97741.56;;;27.13;50.55
64876;BME280;51369;49.862;9.908;2022-08-14T08:40:46;97748.47;;;27.17;50.75
64876;BME280;51369;49.862;9.908;2022-08-14T08:48:24;97741.75;;;27.35;50.26
64876;BME280;51369;49.862;9.908;2022-08-14T08:51:01;97737.28;;;27.48;49.93
64876;BME280;51369;49.862;9.908;2022-08-14T08:53:31;97733.91;;;27.61;49.69
64876;BME280;51369;49.862;9.908;2022-08-14T08:55:57;97736.41;;;27.71;49.29
64876;BME280;51369;49.862;9.908;2022-08-14T08:58:23;97739.44;;;27.76;48.94
64876;BME280;51369;49.862;9.908;2022-08-14T09:00:51;97736.50;;;27.77;48.83
64876;BME280;51369;49.862;9.908;2022-08-14T09:03:20;97735.91;;;27.82;48.58
64876;BME280;51369;49.862;9.908;2022-08-14T09:08:27;97737.47;;;27.99;48.10
64876;BME280;51369;49.862;9.908;2022-08-14T09:10:54;97737.00;;;28.10;47.90
64876;BME280;51369;49.862;9.908;2022-08-14T09:13:21;97725.13;;;28.16;47.51
64876;BME280;51369;49.862;9.908;2022-08-14T09:15:48;97729.75;;;28.24;47.82
64876;BME280;51369;49.862;9.908;2022-08-14T09:18:16;97720.72;;;28.37;47.13
64876;BME280;51369;49.862;9.908;2022-08-14T09:20:44;97710.66;;;28.50;47.17
64876;BME280;51369;49.862;9.908;2022-08-14T09:23:11;97708.50;;;28.67;46.30
64876;BME280;51369;49.862;9.908;2022-08-14T09:25:38;97712.59;;;28.86;46.16
64876;BME280;51369;49.862;9.908;2022-08-14T09:28:06;97723.34;;;29.10;45.35
64876;BME280;51369;49.862;9.908;2022-08-14T09:30:34;97722.28;;;29.33;45.09
64876;BME280;51369;49.862;9.908;2022-08-14T09:38:45;97717.91;;;30.01;42.59
64876;BME280;51369;49.862;9.908;2022-08-14T09:41:36;97719.16;;;30.26;42.33
64876;BME280;51369;49.862;9.908;2022-08-14T09:44:26;97706.84;;;30.55;41.46
64876;BME280;51369;49.862;9.908;2022-08-14T09:46:55;97704.63;;;30.85;41.48
64876;BME280;51369;49.862;9.908;2022-08-14T09:49:32;97697.19;;;31.12;40.87
64876;BME280;51369;49.862;9.908;2022-08-14T09:52:08;97697.00;;;31.40;39.97
64876;BME280;51369;49.862;9.908;2022-08-14T09:54:46;97698.50;;;31.62;39.89
64876;BME280;51369;49.862;9.908;2022-08-14T09:57:29;97696.59;;;31.83;38.95
64876;BME280;51369;49.862;9.908;2022-08-14T09:59:55;97683.22;;;32.04;37.85
64876;BME280;51369;49.862;9.908;2022-08-14T10:02:23;97682.97;;;32.19;38.29
64876;BME280;51369;49.862;9.908;2022-08-14T10:07:34;97681.44;;;32.37;37.02
64876;BME280;51369;49.862;9.908;2022-08-14T10:10:01;97679.94;;;32.41;37.23
64876;BME280;51369;49.862;9.908;2022-08-14T10:12:41;97674.28;;;32.54;37.68
64876;BME280;51369;49.862;9.908;2022-08-14T10:15:19;97672.91;;;32.70;37.28
64876;BME280;51369;49.862;9.908;2022-08-14T10:17:46;97673.75;;;32.83;36.14
64876;BME280;51369;49.862;9.908;2022-08-14T10:20:16;97679.28;;;32.90;36.43
64876;BME280;51369;49.862;9.908;2022-08-14T10:22:47;97683.47;;;32.67;35.84
64876;BME280;51369;49.862;9.908;2022-08-14T10:25:15;97669.38;;;32.49;36.80
64876;BME280;51369;49.862;9.908;2022-08-14T10:27:43;97657.81;;;32.39;36.75
64876;BME280;51369;49.862;9.908;2022-08-14T10:30:13;97656.72;;;32.40;36.72
64876;BME280;51369;49.862;9.908;2022-08-14T10:32:46;97670.41;;;32.55;36.61
64876;BME280;51369;49.862;9.908;2022-08-14T10:35:13;97664.53;;;32.70;36.52
64876;BME280;51369;49.862;9.908;2022-08-14T10:37:45;97665.00;;;32.60;36.30
64876;BME280;51369;49.862;9.908;2022-08-14T10:40:15;97652.22;;;32.39;36.63
64876;BME280;51369;49.862;9.908;2022-08-14T10:42:41;97648.81;;;32.17;36.75
64876;BME280;51369;49.862;9.908;2022-08-14T10:45:23;97642.63;;;32.09;37.45
64876;BME280;51369;49.862;9.908;2022-08-14T10:47:50;97641.38;;;31.98;36.55
64876;BME280;51369;49.862;9.908;2022-08-14T10:50:30;97636.06;;;31.70;36.69
64876;BME280;51369;49.862;9.908;2022-08-14T10:52:57;97629.38;;;31.64;37.01
64876;BME280;51369;49.862;9.908;2022-08-14T10:55:37;97628.53;;;31.70;36.97
64876;BME280;51369;49.862;9.908;2022-08-14T10:58:07;97626.59;;;31.84;37.08
64876;BME280;51369;49.862;9.908;2022-08-14T11:00:38;97631.47;;;32.02;36.21
64876;BME280;51369;49.862;9.908;2022-08-14T11:03:10;97627.13;;;32.19;36.60
64876;BME280;51369;49.862;9.908;2022-08-14T11:05:46;97616.31;;;32.43;36.53
64876;BME280;51369;49.862;9.908;2022-08-14T11:08:12;97624.31;;;32.71;36.45
64876;BME280;51369;49.862;9.908;2022-08-14T11:10:48;97626.72;;;32.98;35.62
64876;BME280;51369;49.862;9.908;2022-08-14T11:13:16;97616.47;;;33.17;34.34
64876;BME280;51369;49.862;9.908;2022-08-14T11:15:43;97616.00;;;33.20;34.40
64876;BME280;51369;49.862;9.908;2022-08-14T11:18:10;97619.63;;;33.27;34.89
64876;BME280;51369;49.862;9.908;2022-08-14T11:20:37;97614.56;;;33.43;34.42
64876;BME280;51369;49.862;9.908;2022-08-14T11:23:06;97609.06;;;33.54;33.45
64876;BME280;51369;49.862;9.908;2022-08-14T11:25:34;97605.97;;;33.62;33.28
64876;BME280;51369;49.862;9.908;2022-08-14T11:28:02;97607.00;;;33.68;33.86
64876;BME280;51369;49.862;9.908;2022-08-14T11:30:29;97596.81;;;33.74;33.47
64876;BME280;51369;49.862;9.908;2022-08-14T11:32:56;97600.88;;;33.78;33.47
64876;BME280;51369;49.862;9.908;2022-08-14T11:35:25;97593.09;;;33.80;33.50
64876;BME280;51369;49.862;9.908;2022-08-14T11:37:52;97588.81;;;33.77;32.68
64876;BME280;51369;49.862;9.908;2022-08-14T11:40:19;97587.00;;;33.64;32.88
64876;BME280;51369;49.862;9.908;2022-08-14T11:42:47;97577.97;;;33.62;33.50
64876;BME280;51369;49.862;9.908;2022-08-14T11:45:14;97587.88;;;33.65;33.66
64876;BME280;51369;49.862;9.908;2022-08-14T11:47:41;97579.56;;;33.77;33.72
64876;BME280;51369;49.862;9.908;2022-08-14T11:50:12;97576.09;;;33.81;33.46
64876;BME280;51369;49.862;9.908;2022-08-14T11:52:37;97573.38;;;33.93;33.95
64876;BME280;51369;49.862;9.908;2022-08-14T11:55:07;97564.50;;;34.14;34.02
64876;BME280;51369;49.862;9.908;2022-08-14T11:57:33;97562.69;;;34.38;33.40
64876;BME280;51369;49.862;9.908;2022-08-14T12:00:05;97566.84;;;34.66;32.62
64876;BME280;51369;49.862;9.908;2022-08-14T12:02:32;97559.38;;;34.71;31.98
64876;BME280;51369;49.862;9.908;2022-08-14T12:04:57;97557.06;;;34.68;32.02
64876;BME280;51369;49.862;9.908;2022-08-14T12:07:23;97553.06;;;34.64;31.87
64876;BME280;51369;49.862;9.908;2022-08-14T12:09:52;97548.53;;;34.63;32.01
64876;BME280;51369;49.862;9.908;2022-08-14T12:12:25;97558.41;;;34.66;31.52
64876;BME280;51369;49.862;9.908;2022-08-14T12:14:59;97559.84;;;34.68;32.13
64876;BME280;51369;49.862;9.908;2022-08-14T12:17:27;97554.06;;;34.81;32.08
64876;BME280;51369;49.862;9.908;2022-08-14T12:19:53;97548.03;;;34.96;32.05
64876;BME280;51369;49.862;9.908;2022-08-14T12:22:41;97539.63;;;35.08;31.43
64876;BME280;51369;49.862;9.908;2022-08-14T12:25:14;97546.81;;;35.04;31.61
64876;BME280;51369;49.862;9.908;2022-08-14T12:28:01;97534.59;;;34.98;31.56
64876;BME280;51369;49.862;9.908;2022-08-14T12:32:57;97522.41;;;34.92;31.22
64876;BME280;51369;49.862;9.908;2022-08-14T12:35:38;97506.53;;;34.86;31.34
64876;BME280;51369;49.862;9.908;2022-08-14T12:38:04;97497.03;;;34.87;30.85
64876;BME280;51369;49.862;9.908;2022-08-14T12:40:30;97498.59;;;34.83;31.22
64876;BME280;51369;49.862;9.908;2022-08-14T12:43:00;97501.00;;;34.80;30.94
64876;BME280;51369;49.862;9.908;2022-08-14T12:45:31;97490.81;;;34.85;31.05
64876;BME280;51369;49.862;9.908;2022-08-14T12:48:04;97478.50;;;34.86;30.76
64876;BME280;51369;49.862;9.908;2022-08-14T12:50:38;97483.81;;;34.76;30.36
64876;BME280;51369;49.862;9.908;2022-08-14T12:53:06;97473.22;;;34.67;31.18
64876;BME280;51369;49.862;9.908;2022-08-14T12:55:32;97470.38;;;34.55;30.98
64876;BME280;51369;49.862;9.908;2022-08-14T12:58:00;97466.84;;;34.59;31.62
64876;BME280;51369;49.862;9.908;2022-08-14T13:00:28;97471.38;;;34.72;31.64
64876;BME280;51369;49.862;9.908;2022-08-14T13:02:54;97469.91;;;34.58;31.97
64876;BME280;51369;49.862;9.908;2022-08-14T13:05:25;97465.00;;;34.53;32.66
64876;BME280;51369;49.862;9.908;2022-08-14T13:07:51;97465.91;;;34.66;32.41
64876;BME280;51369;49.862;9.908;2022-08-14T13:10:18;97466.91;;;34.83;31.58
64876;BME280;51369;49.862;9.908;2022-08-14T13:12:45;97474.78;;;34.74;31.69
64876;BME280;51369;49.862;9.908;2022-08-14T13:15:13;97464.63;;;34.50;31.60
64876;BME280;51369;49.862;9.908;2022-08-14T13:17:48;97458.94;;;34.26;31.92
64876;BME280;51369;49.862;9.908;2022-08-14T13:20:16;97463.97;;;34.06;32.46
64876;BME280;51369;49.862;9.908;2022-08-14T13:22:43;97454.19;;;33.79;32.31
64876;BME280;51369;49.862;9.908;2022-08-14T13:25:11;97447.91;;;33.65;32.77
64876;BME280;51369;49.862;9.908;2022-08-14T13:27:38;97446.09;;;33.71;32.48
64876;BME280;51369;49.862;9.908;2022-08-14T13:30:07;97430.88;;;33.85;32.94